Time;durP1;ratioP1;P1;durP2;ratioP2;P2;SDS_P1;SDS_P2;PMS_P1;PMS_P2;Temp;Humidity;BMP_temperature;BMP_pressure;BME280_temperature;BME280_humidity;BME280_pressure;Samples;Min_cycle;Max_cycle;Signal;HPM_P1;HPM_P2
2023/06/16 00:00:34;;;;;;;3.80;3.50;;;;;;;11.15;90.65;97699.28;6242405;28;20238;-44
2023/06/16 00:03:36;;;;;;;4.97;3.87;;;;;;;11.14;90.83;97698.47;6242388;28;20242;-43
2023/06/16 00:06:42;;;;;;;4.07;3.33;;;;;;;11.05;90.54;97684.75;6238321;28;20234;-44
2023/06/16 00:09:44;;;;;;;3.97;3.57;;;;;;;11.10;90.92;97700.03;6239946;28;20329;-44
2023/06/16 00:12:46;;;;;;;3.90;3.60;;;;;;;11.05;90.91;97698.09;6238971;28;20674;-43
2023/06/16 00:15:49;;;;;;;3.70;3.40;;;;;;;10.99;90.72;97699.06;6239957;28;20234;-42
2023/06/16 00:18:53;;;;;;;4.07;3.57;;;;;;;10.93;90.68;97701.88;6222534;28;20251;-44
2023/06/16 00:21:59;;;;;;;3.93;3.53;;;;;;;10.74;90.80;97674.69;6241813;28;20234;-43
2023/06/16 00:25:01;;;;;;;3.70;3.30;;;;;;;10.83;90.75;97702.53;6239076;28;20239;-44
2023/06/16 00:28:03;;;;;;;4.37;3.67;;;;;;;10.80;91.35;97692.38;6240144;28;20252;-43
2023/06/16 00:31:07;;;;;;;4.30;4.00;;;;;;;10.54;91.31;97668.00;6238474;28;20242;-43
2023/06/16 00:34:09;;;;;;;6.47;3.63;;;;;;;10.64;91.96;97690.50;6239617;28;20242;-43
2023/06/16 00:37:12;;;;;;;4.57;3.97;;;;;;;10.39;92.32;97657.06;6241429;28;20249;-43
2023/06/16 00:40:14;;;;;;;4.63;4.23;;;;;;;9.75;92.40;97564.13;6237791;28;20304;-44
2023/06/16 00:43:17;;;;;;;4.17;3.77;;;;;;;10.52;93.11;97687.91;6233886;28;20238;-43
2023/06/16 00:46:27;;;;;;;4.03;3.60;;;;;;;10.54;92.41;97686.63;6238060;28;20242;-43
2023/06/16 00:49:30;;;;;;;6.00;3.93;;;;;;;10.51;92.38;97679.13;6239055;28;20235;-43
2023/06/16 00:52:35;;;;;;;3.80;3.47;;;;;;;10.48;92.27;97681.44;6202975;28;20422;-43
2023/06/16 00:55:38;;;;;;;4.93;3.37;;;;;;;10.41;92.48;97681.59;6237238;28;20250;-42
2023/06/16 00:58:40;;;;;;;3.63;3.33;;;;;;;10.37;92.89;97677.81;6230011;28;20246;-43
2023/06/16 01:01:42;;;;;;;4.43;3.70;;;;;;;10.36;92.93;97678.06;6237784;28;20786;-42
2023/06/16 01:04:47;;;;;;;4.37;3.80;;;;;;;10.32;93.08;97680.38;6223743;28;20252;-45
2023/06/16 01:08:13;;;;;;;5.30;4.03;;;;;;;10.28;92.77;97673.91;6230826;28;20236;-43
2023/06/16 01:11:35;;;;;;;3.97;3.60;;;;;;;10.25;92.65;97671.75;6233442;28;20220;-49
2023/06/16 01:14:59;;;;;;;3.33;3.00;;;;;;;10.26;93.37;97665.38;6233449;28;20326;-43
2023/06/16 01:18:02;;;;;;;3.83;3.40;;;;;;;10.24;93.37;97662.13;6237881;28;20706;-43
2023/06/16 01:21:48;;;;;;;4.00;3.60;;;;;;;10.28;92.87;97673.91;6238883;28;20226;-47
2023/06/16 01:24:54;;;;;;;4.37;3.60;;;;;;;10.19;93.03;97667.31;6099226;29;20735;-43
2023/06/16 01:27:58;;;;;;;3.87;3.57;;;;;;;10.18;92.89;97668.38;6101807;28;20721;-45
2023/06/16 01:31:02;;;;;;;3.93;3.63;;;;;;;10.14;93.26;97668.03;6116168;29;20273;-43
2023/06/16 01:34:06;;;;;;;4.00;3.60;;;;;;;10.09;93.19;97663.44;6092703;28;20871;-45
2023/06/16 01:37:10;;;;;;;3.93;3.40;;;;;;;10.03;93.63;97660.94;6115257;29;20911;-42
2023/06/16 01:40:13;;;;;;;4.03;3.57;;;;;;;9.98;93.45;97656.31;6115253;29;20255;-43
2023/06/16 01:43:16;;;;;;;4.57;3.30;;;;;;;9.74;93.88;97614.91;6117061;29;20254;-44
2023/06/16 01:46:20;;;;;;;5.77;3.80;;;;;;;10.00;94.06;97653.41;6099777;29;20420;-43
2023/06/16 01:49:23;;;;;;;3.87;3.47;;;;;;;9.78;93.87;97622.16;6111244;29;20274;-42
2023/06/16 01:52:25;;;;;;;3.90;3.60;;;;;;;9.99;93.87;97652.59;6115546;29;20245;-43
2023/06/16 01:55:28;;;;;;;3.40;3.10;;;;;;;9.98;93.87;97655.50;6110255;29;20230;-44
2023/06/16 01:58:30;;;;;;;3.50;3.07;;;;;;;9.94;93.88;97662.34;6114613;29;20288;-42
2023/06/16 02:01:42;;;;;;;3.97;3.67;;;;;;;9.93;94.23;97658.09;6193332;28;20729;-44
2023/06/16 02:04:48;;;;;;;4.00;3.60;;;;;;;9.93;94.04;97650.09;6202309;28;20233;-43
2023/06/16 02:07:53;;;;;;;3.50;3.20;;;;;;;9.91;94.23;97655.66;6214802;28;20251;-43
2023/06/16 02:10:57;;;;;;;4.43;3.10;;;;;;;9.88;93.85;97650.81;6213348;28;20305;-44
2023/06/16 02:13:59;;;;;;;3.50;3.20;;;;;;;9.86;94.01;97644.13;6218240;28;20927;-43
2023/06/16 02:17:07;;;;;;;5.03;3.90;;;;;;;9.85;94.00;97651.28;6220347;28;20235;-47
2023/06/16 02:20:11;;;;;;;3.30;3.00;;;;;;;9.84;93.91;97652.31;6216913;28;20326;-43
2023/06/16 02:23:14;;;;;;;3.27;2.97;;;;;;;9.86;94.52;97644.13;6218743;28;20235;-43
2023/06/16 02:26:16;;;;;;;3.60;3.27;;;;;;;9.89;94.24;97647.09;6216833;28;20238;-43
2023/06/16 02:29:18;;;;;;;3.53;3.23;;;;;;;9.89;94.41;97643.63;6218370;28;20222;-42
2023/06/16 02:32:20;;;;;;;4.07;3.07;;;;;;;9.92;94.57;97646.63;6217488;28;20843;-43
2023/06/16 02:35:23;;;;;;;2.93;2.73;;;;;;;9.96;95.11;97646.97;6214586;28;20253;-43
2023/06/16 02:38:25;;;;;;;3.60;3.07;;;;;;;10.00;95.15;97654.25;6212872;28;20325;-44
2023/06/16 02:41:27;;;;;;;3.27;2.80;;;;;;;9.99;94.94;97647.28;6225367;28;20246;-42
2023/06/16 02:44:30;;;;;;;3.27;2.97;;;;;;;10.05;94.90;97643.69;6199837;28;20227;-43
2023/06/16 02:47:32;;;;;;;5.40;3.30;;;;;;;10.12;95.17;97650.72;6217540;28;20250;-43
2023/06/16 02:50:35;;;;;;;3.33;3.03;;;;;;;10.13;95.20;97654.97;6211794;28;20242;-43
2023/06/16 02:53:41;;;;;;;4.10;3.13;;;;;;;10.12;95.38;97651.50;6216245;28;20235;-42
2023/06/16 02:56:44;;;;;;;3.47;2.57;;;;;;;10.13;94.88;97657.66;6201063;28;20597;-43
2023/06/16 02:59:47;;;;;;;3.70;3.10;;;;;;;10.12;95.03;97662.16;6225381;28;20235;-43
2023/06/16 03:02:51;;;;;;;3.63;3.27;;;;;;;10.12;94.92;97666.69;6215456;28;20384;-43
2023/06/16 03:05:53;;;;;;;3.43;3.13;;;;;;;10.07;95.37;97660.22;6213478;28;20272;-42
2023/06/16 03:08:57;;;;;;;4.53;3.70;;;;;;;10.03;94.82;97656.41;6216265;28;20671;-44
2023/06/16 03:12:04;;;;;;;3.57;3.20;;;;;;;9.78;95.17;97627.47;6198488;28;20235;-43
2023/06/16 03:15:12;;;;;;;3.60;3.30;;;;;;;9.72;95.72;97630.28;6212919;28;20609;-50
2023/06/16 03:18:14;;;;;;;4.50;3.53;;;;;;;9.89;95.57;97659.59;6219461;28;20233;-47
2023/06/16 03:21:17;;;;;;;4.00;3.40;;;;;;;9.85;95.38;97661.91;6216135;28;20867;-49
2023/06/16 03:24:23;;;;;;;4.80;3.53;;;;;;;9.82;95.95;97663.22;6217980;28;20236;-44
2023/06/16 03:27:25;;;;;;;3.40;3.10;;;;;;;9.84;95.65;97676.28;6213338;28;20282;-44
2023/06/16 03:30:33;;;;;;;3.93;3.63;;;;;;;9.85;96.02;97674.41;6231671;28;20322;-44
2023/06/16 03:33:39;;;;;;;3.87;3.53;;;;;;;9.85;95.40;97674.41;6212433;28;20235;-43
2023/06/16 03:36:41;;;;;;;3.90;3.50;;;;;;;9.80;95.76;97665.31;6216151;28;20235;-43
2023/06/16 03:39:43;;;;;;;4.00;3.40;;;;;;;9.74;95.38;97662.78;6217077;28;20234;-47
2023/06/16 03:42:46;;;;;;;4.30;3.77;;;;;;;9.83;95.66;97683.44;6211701;28;20238;-50
2023/06/16 03:45:49;;;;;;;4.63;3.20;;;;;;;9.86;95.66;97682.19;6216003;28;20238;-47
2023/06/16 03:48:52;;;;;;;5.13;4.00;;;;;;;9.84;95.85;97684.25;6212144;28;20323;-51
2023/06/16 03:51:54;;;;;;;4.20;3.80;;;;;;;9.84;95.88;97684.25;6198520;28;20234;-49
2023/06/16 03:54:57;;;;;;;5.10;3.77;;;;;;;9.86;96.08;97686.69;6215201;28;20238;-51
2023/06/16 03:57:59;;;;;;;3.80;3.50;;;;;;;9.85;96.15;97693.84;6217512;28;20248;-51
2023/06/16 04:01:02;;;;;;;4.07;3.53;;;;;;;9.62;96.16;97656.69;6215204;28;20705;-51
2023/06/16 04:04:05;;;;;;;4.73;3.53;;;;;;;9.86;95.97;97698.16;6214931;28;20583;-50
2023/06/16 04:07:11;;;;;;;4.90;3.57;;;;;;;9.87;96.17;97696.28;6212468;28;20238;-42
2023/06/16 04:10:13;;;;;;;4.03;3.10;;;;;;;9.85;96.21;97685.06;6214943;28;20337;-44
2023/06/16 04:13:15;;;;;;;3.70;3.40;;;;;;;9.83;96.14;97682.66;6215579;28;20269;-43
2023/06/16 04:16:21;;;;;;;3.80;3.50;;;;;;;9.82;96.58;97681.84;6214310;28;20610;-47
2023/06/16 04:19:26;;;;;;;6.37;4.20;;;;;;;9.90;96.46;97703.78;6211404;28;20262;-50
2023/06/16 04:22:28;;;;;;;3.97;3.63;;;;;;;9.93;96.19;97693.47;6217687;28;20980;-51
2023/06/16 04:25:32;;;;;;;4.10;3.70;;;;;;;9.77;96.54;97665.78;6214280;28;20243;-50
2023/06/16 04:28:42;;;;;;;3.43;3.13;;;;;;;9.99;96.29;97692.53;6207595;28;20267;-50
2023/06/16 04:31:48;;;;;;;3.87;3.57;;;;;;;9.80;96.61;97652.00;6210514;28;20235;-50
2023/06/16 04:34:52;;;;;;;6.83;3.97;;;;;;;10.07;96.25;97697.47;6202193;28;20238;-50
2023/06/16 04:37:57;;;;;;;3.93;3.63;;;;;;;10.11;96.21;97689.03;6210336;28;20238;-49
2023/06/16 04:40:59;;;;;;;5.00;3.97;;;;;;;10.14;96.76;97684.00;6214753;28;20238;-50
2023/06/16 04:44:06;;;;;;;5.33;4.80;;;;;;;10.16;97.51;97686.47;6208509;28;20607;-50
2023/06/16 04:47:09;;;;;;;4.17;3.77;;;;;;;10.16;97.02;97684.59;6198269;28;20230;-50
2023/06/16 04:50:15;;;;;;;4.40;4.00;;;;;;;10.19;97.00;97681.44;6215709;28;20318;-48
2023/06/16 04:53:20;;;;;;;6.43;4.43;;;;;;;10.22;97.32;97688.97;6195917;28;20238;-50
2023/06/16 04:56:22;;;;;;;4.00;3.70;;;;;;;10.26;97.25;97689.34;6217516;28;20238;-48
2023/06/16 04:59:25;;;;;;;4.03;3.67;;;;;;;10.30;96.97;97691.28;6238211;28;20237;-49
2023/06/16 05:02:27;;;;;;;4.30;3.90;;;;;;;10.37;97.38;97698.31;6239249;28;20262;-51
2023/06/16 05:05:32;;;;;;;4.57;4.17;;;;;;;10.42;97.50;97691.19;6219060;28;20230;-50
2023/06/16 05:08:35;;;;;;;4.57;3.90;;;;;;;10.48;97.71;97695.56;6236226;28;20368;-49
2023/06/16 05:11:37;;;;;;;4.90;4.40;;;;;;;10.55;97.59;97682.91;6238778;28;20249;-51
2023/06/16 05:14:40;;;;;;;5.10;4.10;;;;;;;10.68;98.29;97686.28;6201690;28;20249;-48
2023/06/16 05:17:44;;;;;;;5.50;4.70;;;;;;;10.82;99.26;97684.94;6236847;28;20762;-50
2023/06/16 05:20:47;;;;;;;5.70;4.67;;;;;;;11.08;99.80;97688.78;6221136;28;20241;-50
2023/06/16 05:23:52;;;;;;;5.10;4.47;;;;;;;11.45;98.09;97682.91;6219251;28;20230;-51
2023/06/16 05:26:55;;;;;;;5.40;3.93;;;;;;;11.85;95.17;97677.28;6239367;28;20250;-50
2023/06/16 05:29:58;;;;;;;3.73;3.43;;;;;;;12.23;90.71;97656.84;6238144;28;20227;-51
2023/06/16 05:33:03;;;;;;;3.43;3.13;;;;;;;12.72;87.65;97667.44;6221088;28;20310;-50
2023/06/16 05:36:07;;;;;;;4.17;3.70;;;;;;;13.06;84.71;97683.97;6225254;28;20216;-48
2023/06/16 05:39:12;;;;;;;4.70;3.23;;;;;;;13.70;80.22;97680.34;6207626;28;20217;-49
2023/06/16 05:42:15;;;;;;;3.90;2.93;;;;;;;14.00;77.67;97679.66;6208416;28;20594;-51
2023/06/16 05:45:19;;;;;;;3.90;2.77;;;;;;;14.16;77.27;97683.97;6205169;28;20207;-49
2023/06/16 05:48:23;;;;;;;3.40;2.87;;;;;;;14.24;76.70;97672.75;6208209;28;20230;-49
2023/06/16 05:51:26;;;;;;;4.70;2.93;;;;;;;14.48;75.59;97680.28;6241756;28;20807;-49
2023/06/16 05:54:29;;;;;;;5.10;3.00;;;;;;;14.61;74.18;97685.13;6222245;28;20230;-47
2023/06/16 05:57:32;;;;;;;4.50;2.87;;;;;;;14.88;73.02;97684.88;6230358;28;20713;-46
2023/06/16 06:00:35;;;;;;;3.97;2.93;;;;;;;14.94;73.30;97692.66;6224407;28;20354;-47
2023/06/16 06:03:47;;;;;;;2.87;2.67;;;;;;;14.92;74.12;97694.78;6212044;28;20274;-49
2023/06/16 06:06:53;;;;;;;3.40;3.10;;;;;;;15.10;73.01;97692.63;6223199;28;20259;-49
2023/06/16 06:09:56;;;;;;;3.67;3.00;;;;;;;15.49;70.61;97693.63;6225231;28;20740;-47
2023/06/16 06:13:02;;;;;;;3.47;3.00;;;;;;;15.72;68.86;97697.59;6222482;28;20727;-48
2023/06/16 06:16:11;;;;;;;4.50;2.80;;;;;;;15.69;70.16;97692.78;6237658;28;20365;-49
2023/06/16 06:19:14;;;;;;;3.30;2.87;;;;;;;15.91;68.51;97695.13;6231643;28;20317;-49
2023/06/16 06:22:17;;;;;;;3.90;2.90;;;;;;;15.97;67.68;97693.22;6220940;28;20814;-48
2023/06/16 06:25:20;;;;;;;3.80;3.20;;;;;;;16.11;68.61;97704.16;6244156;28;20696;-48
2023/06/16 06:28:25;;;;;;;3.67;3.27;;;;;;;16.30;66.83;97701.63;6224037;28;20310;-49
2023/06/16 06:31:28;;;;;;;4.53;3.07;;;;;;;16.45;64.50;97698.81;6224466;28;20220;-48
2023/06/16 06:34:31;;;;;;;2.97;2.77;;;;;;;16.58;66.31;97695.53;6223510;28;20704;-52
2023/06/16 06:37:33;;;;;;;3.97;2.77;;;;;;;16.46;67.89;97701.25;6241647;28;20324;-49
2023/06/16 06:40:36;;;;;;;3.73;3.10;;;;;;;16.49;67.95;97700.69;6224390;28;20245;-47
2023/06/16 06:43:40;;;;;;;3.50;2.93;;;;;;;16.58;68.22;97705.47;6229751;28;20318;-52
2023/06/16 06:46:48;;;;;;;3.57;3.20;;;;;;;16.61;69.68;97703.03;6221072;28;20236;-55
2023/06/16 06:49:56;;;;;;;3.57;3.27;;;;;;;16.82;65.95;97706.41;6218333;28;20263;-57
2023/06/16 06:52:58;;;;;;;4.07;2.87;;;;;;;17.15;64.45;97699.41;6217044;28;20231;-50
2023/06/16 06:56:00;;;;;;;3.90;3.20;;;;;;;17.09;65.65;97687.06;6241187;28;20261;-50
2023/06/16 06:59:02;;;;;;;2.83;2.63;;;;;;;17.28;65.12;97698.72;6240575;28;20231;-50
2023/06/16 07:02:06;;;;;;;3.23;2.93;;;;;;;17.37;65.09;97711.56;6240727;28;20239;-50
2023/06/16 07:05:09;;;;;;;2.97;2.67;;;;;;;17.47;65.70;97712.25;6239932;28;20247;-45
2023/06/16 07:08:13;;;;;;;4.97;2.77;;;;;;;17.88;61.58;97708.34;6241283;28;20235;-47
2023/06/16 07:11:15;;;;;;;3.87;3.03;;;;;;;17.72;60.82;97678.84;6240694;28;20305;-47
2023/06/16 07:14:17;;;;;;;3.90;2.80;;;;;;;18.08;61.65;97712.66;6242239;28;20261;-49
2023/06/16 07:17:19;;;;;;;4.47;3.00;;;;;;;18.19;61.52;97716.84;6235565;28;20310;-46
2023/06/16 07:20:22;;;;;;;4.50;3.03;;;;;;;18.13;60.49;97720.69;6239311;28;20216;-45
2023/06/16 07:23:25;;;;;;;3.90;2.90;;;;;;;17.97;61.74;97720.06;6237371;28;20220;-47
2023/06/16 07:26:28;;;;;;;3.53;3.10;;;;;;;17.96;59.40;97707.69;6224038;28;20226;-46
2023/06/16 07:29:30;;;;;;;4.37;3.17;;;;;;;18.16;58.95;97726.31;6239631;28;20220;-47
2023/06/16 07:32:33;;;;;;;3.77;2.90;;;;;;;18.17;57.21;97719.81;6238530;28;20242;-45
2023/06/16 07:35:36;;;;;;;2.63;2.43;;;;;;;18.22;58.67;97684.69;6239817;28;20234;-47
2023/06/16 07:38:38;;;;;;;3.10;2.70;;;;;;;18.42;57.08;97702.50;6239874;28;20235;-48
2023/06/16 07:41:40;;;;;;;3.43;2.80;;;;;;;18.62;57.11;97708.66;6238956;28;20321;-48
2023/06/16 07:44:43;;;;;;;3.90;3.20;;;;;;;18.59;57.30;97703.88;6240032;28;20243;-49
2023/06/16 07:47:48;;;;;;;4.00;2.77;;;;;;;18.68;56.58;97697.56;6213661;28;20234;-48
2023/06/16 07:50:50;;;;;;;3.37;3.07;;;;;;;18.76;57.82;97710.38;6232528;28;20231;-47
2023/06/16 07:53:53;;;;;;;3.77;3.13;;;;;;;18.88;54.58;97711.84;6238140;28;20239;-45
2023/06/16 07:56:56;;;;;;;5.37;3.20;;;;;;;18.77;55.57;97711.19;6220751;28;20223;-48
2023/06/16 07:59:58;;;;;;;5.67;3.40;;;;;;;18.71;55.78;97709.66;6239203;28;20704;-45
2023/06/16 08:03:01;;;;;;;6.00;3.20;;;;;;;18.85;54.44;97697.00;6238767;28;20721;-45
2023/06/16 08:06:05;;;;;;;4.20;3.10;;;;;;;18.90;52.77;97701.53;6238945;28;20318;-45
2023/06/16 08:09:10;;;;;;;3.80;3.37;;;;;;;19.04;53.63;97696.97;6238450;28;20243;-45
2023/06/16 08:12:12;;;;;;;3.73;3.27;;;;;;;18.99;55.24;97702.47;6238566;28;20220;-45
2023/06/16 08:15:16;;;;;;;4.00;2.90;;;;;;;18.91;57.17;97686.94;6228258;28;20215;-45
2023/06/16 08:18:19;;;;;;;5.40;3.20;;;;;;;18.95;56.81;97696.03;6239360;28;20224;-46
2023/06/16 08:21:21;;;;;;;3.73;2.83;;;;;;;19.00;57.39;97688.66;6238798;28;20242;-47
2023/06/16 08:24:24;;;;;;;5.03;3.13;;;;;;;19.19;54.54;97691.31;6241279;28;20227;-47
2023/06/16 08:27:27;;;;;;;4.33;3.33;;;;;;;19.33;54.08;97691.34;6235546;28;20230;-49
2023/06/16 08:30:29;;;;;;;4.17;3.27;;;;;;;19.31;53.87;97698.94;6233171;28;20228;-48
2023/06/16 08:33:32;;;;;;;3.87;3.33;;;;;;;19.48;49.48;97692.94;6239127;28;20641;-46
2023/06/16 08:36:34;;;;;;;3.07;2.77;;;;;;;19.44;52.10;97692.75;6219586;28;20605;-46
2023/06/16 08:39:37;;;;;;;3.60;3.00;;;;;;;19.53;52.13;97703.66;6235272;28;20581;-48
2023/06/16 08:42:41;;;;;;;4.70;2.60;;;;;;;19.67;48.77;97696.41;6225119;28;20216;-46
2023/06/16 08:45:45;;;;;;;3.50;3.20;;;;;;;19.69;50.78;97696.88;6228038;28;20628;-48
2023/06/16 08:48:47;;;;;;;3.90;2.80;;;;;;;19.75;49.69;97687.59;6224594;28;20318;-44
2023/06/16 08:51:51;;;;;;;3.73;3.00;;;;;;;19.76;49.91;97686.50;6233885;28;20227;-47
2023/06/16 08:54:57;;;;;;;5.23;2.90;;;;;;;19.65;49.79;97682.38;6208226;28;20223;-49
2023/06/16 08:58:00;;;;;;;7.17;3.00;;;;;;;19.70;50.62;97686.88;6231881;28;20234;-50
2023/06/16 09:01:06;;;;;;;3.73;2.90;;;;;;;19.76;49.11;97683.78;6221250;28;20263;-49
2023/06/16 09:04:09;;;;;;;4.43;2.87;;;;;;;19.82;50.28;97689.88;6231972;28;20227;-47
2023/06/16 09:07:15;;;;;;;5.17;2.90;;;;;;;19.95;50.63;97693.66;6237457;28;20314;-48
2023/06/16 09:10:17;;;;;;;3.10;2.47;;;;;;;19.93;47.49;97682.34;6229356;28;20230;-47
2023/06/16 09:13:21;;;;;;;3.30;3.00;;;;;;;19.87;52.89;97676.25;6216796;28;20270;-45
2023/06/16 09:16:24;;;;;;;4.70;3.07;;;;;;;19.97;51.10;97676.06;6227076;28;20235;-48
2023/06/16 09:19:27;;;;;;;5.47;2.97;;;;;;;20.03;51.59;97674.03;6231705;28;20280;-45
2023/06/16 09:22:29;;;;;;;6.03;3.20;;;;;;;20.24;44.60;97671.69;6230166;28;20255;-46
2023/06/16 09:25:38;;;;;;;3.43;2.90;;;;;;;20.34;44.86;97663.31;6225075;28;20231;-44
2023/06/16 09:28:40;;;;;;;4.13;3.10;;;;;;;20.46;47.55;97669.03;6218763;28;20224;-45
2023/06/16 09:31:43;;;;;;;3.57;3.07;;;;;;;20.39;46.93;97660.50;6243721;28;20242;-44
2023/06/16 09:34:45;;;;;;;4.43;3.00;;;;;;;20.38;44.46;97658.91;6228634;28;20394;-46
2023/06/16 09:37:50;;;;;;;5.73;3.33;;;;;;;20.52;43.56;97662.41;6230745;28;20242;-46
2023/06/16 09:40:55;;;;;;;4.27;2.83;;;;;;;20.68;44.53;97654.72;6236655;28;20770;-46
2023/06/16 09:43:59;;;;;;;4.60;3.10;;;;;;;20.79;43.40;97658.78;6238550;28;20261;-45
2023/06/16 09:47:02;;;;;;;8.07;2.90;;;;;;;20.59;46.12;97654.69;6220021;28;20310;-45
2023/06/16 09:50:06;;;;;;;3.40;2.90;;;;;;;20.39;45.26;97646.19;6228070;28;20241;-44
2023/06/16 09:53:09;;;;;;;3.73;3.17;;;;;;;20.59;40.79;97653.84;6201738;28;20224;-44
2023/06/16 09:56:15;;;;;;;4.43;2.97;;;;;;;20.68;39.41;97648.50;6224065;28;20641;-43
2023/06/16 09:59:18;;;;;;;3.93;3.20;;;;;;;20.72;41.25;97627.84;6237618;28;20303;-43
2023/06/16 10:02:23;;;;;;;3.67;3.20;;;;;;;20.85;41.64;97646.72;6220455;28;20308;-43
2023/06/16 10:05:30;;;;;;;4.13;3.20;;;;;;;20.92;39.66;97640.06;6229257;28;20300;-44
2023/06/16 10:08:32;;;;;;;3.70;2.80;;;;;;;20.69;40.64;97637.38;6235919;28;20595;-44
2023/06/16 10:11:37;;;;;;;2.87;2.47;;;;;;;20.85;43.83;97657.53;6211699;28;20325;-44
2023/06/16 10:14:42;;;;;;;7.50;3.40;;;;;;;20.77;43.95;97638.53;6232418;28;20226;-43
2023/06/16 10:17:48;;;;;;;5.07;3.30;;;;;;;20.78;41.11;97646.34;6237989;28;20228;-44
2023/06/16 10:20:51;;;;;;;4.90;2.73;;;;;;;20.90;41.76;97642.28;6226892;28;20235;-43
2023/06/16 10:23:54;;;;;;;3.30;3.00;;;;;;;20.91;41.26;97638.47;6225609;28;20223;-43
2023/06/16 10:26:57;;;;;;;3.87;3.13;;;;;;;21.12;39.47;97631.41;6226450;28;20709;-42
2023/06/16 10:30:02;;;;;;;5.50;2.97;;;;;;;21.08;39.19;97630.41;6206770;28;20227;-43
2023/06/16 10:33:28;;;;;;;3.63;2.80;;;;;;;21.03;41.08;97630.56;6238841;28;20238;-43
2023/06/16 10:36:33;;;;;;;3.87;3.20;;;;;;;21.04;40.73;97619.44;6218098;28;20641;-43
2023/06/16 10:39:43;;;;;;;5.40;3.47;;;;;;;20.98;38.91;97603.59;6241348;28;20223;-43
2023/06/16 10:42:46;;;;;;;4.27;2.97;;;;;;;21.11;36.46;97619.78;6196253;28;20285;-43
2023/06/16 10:45:50;;;;;;;3.63;3.20;;;;;;;21.17;38.42;97612.28;6240907;28;20227;-45
2023/06/16 10:48:57;;;;;;;3.30;3.00;;;;;;;21.22;40.91;97608.66;6228787;28;20302;-44
2023/06/16 10:52:02;;;;;;;4.83;3.13;;;;;;;21.47;37.78;97605.25;6219921;28;20251;-43
2023/06/16 10:55:31;;;;;;;5.83;3.13;;;;;;;21.59;37.35;97621.75;6227507;28;20240;-45
2023/06/16 10:58:34;;;;;;;4.17;3.20;;;;;;;21.45;36.79;97591.25;6221035;28;20902;-44
2023/06/16 11:01:46;;;;;;;5.17;3.40;;;;;;;21.38;39.84;97597.13;6220284;28;20220;-45
2023/06/16 11:05:10;;;;;;;5.17;3.10;;;;;;;21.46;39.58;97605.59;6231205;28;20224;-44
2023/06/16 11:08:13;;;;;;;3.37;3.07;;;;;;;21.41;40.19;97589.47;6237495;28;20258;-46
2023/06/16 11:11:16;;;;;;;6.73;3.17;;;;;;;21.46;38.88;97589.31;6208934;28;20234;-46
2023/06/16 11:14:18;;;;;;;6.23;3.40;;;;;;;21.48;39.04;97584.41;6240774;28;20234;-44
2023/06/16 11:17:21;;;;;;;7.57;3.60;;;;;;;21.58;38.41;97589.53;6242028;28;20228;-45
2023/06/16 11:20:23;;;;;;;5.30;3.17;;;;;;;21.45;42.43;97574.97;6241830;28;20227;-44
2023/06/16 11:23:26;;;;;;;4.80;3.30;;;;;;;21.72;37.70;97578.53;6235944;28;20231;-45
2023/06/16 11:26:29;;;;;;;8.30;3.67;;;;;;;21.76;37.20;97583.00;6234949;28;20353;-45
2023/06/16 11:29:32;;;;;;;5.67;3.57;;;;;;;21.50;36.57;97549.63;6240237;28;20231;-44
2023/06/16 11:32:37;;;;;;;5.27;3.40;;;;;;;21.77;39.14;97576.50;6240550;28;20231;-44
2023/06/16 11:35:40;;;;;;;8.37;3.60;;;;;;;22.09;35.92;97583.38;6241086;28;20234;-43
2023/06/16 11:38:44;;;;;;;6.20;3.57;;;;;;;21.90;36.71;97569.31;6234015;28;20215;-45
2023/06/16 11:41:46;;;;;;;4.40;3.50;;;;;;;22.08;34.88;97576.34;6238838;28;20381;-44
2023/06/16 11:44:54;;;;;;;5.00;3.63;;;;;;;21.99;39.00;97570.13;6239300;28;20634;-44
2023/06/16 11:47:58;;;;;;;4.10;3.70;;;;;;;21.92;43.48;97563.56;6241919;28;20371;-44
2023/06/16 11:51:01;;;;;;;5.93;3.70;;;;;;;22.08;41.17;97570.13;6237972;28;20605;-44
2023/06/16 11:54:03;;;;;;;7.37;3.97;;;;;;;22.23;40.10;97571.59;6220293;28;20242;-43
2023/06/16 11:57:06;;;;;;;4.87;3.47;;;;;;;22.15;40.38;97565.81;6237907;28;20890;-48
2023/06/16 12:00:09;;;;;;;5.77;3.60;;;;;;;22.10;37.13;97557.81;6240187;28;20224;-51
2023/06/16 12:03:12;;;;;;;4.90;3.20;;;;;;;22.15;40.48;97563.13;6241705;28;20223;-44
2023/06/16 12:06:15;;;;;;;4.53;3.37;;;;;;;22.09;38.82;97558.16;6241099;28;20701;-45
2023/06/16 12:09:19;;;;;;;4.83;3.73;;;;;;;22.07;42.48;97579.38;6218600;28;20234;-48
2023/06/16 12:12:25;;;;;;;4.20;3.70;;;;;;;21.60;41.46;97582.66;6236757;28;20240;-43
2023/06/16 12:15:29;;;;;;;3.73;3.13;;;;;;;21.50;41.44;97574.84;6240740;28;20623;-45
2023/06/16 12:18:31;;;;;;;5.10;3.53;;;;;;;21.38;43.05;97564.59;6238175;28;20327;-52
2023/06/16 12:21:33;;;;;;;4.93;3.30;;;;;;;21.22;44.13;97566.09;6239641;28;20878;-43
2023/06/16 12:24:39;;;;;;;3.80;3.50;;;;;;;21.01;43.53;97559.66;6242064;28;20480;-50
2023/06/16 12:27:51;;;;;;;3.67;3.30;;;;;;;20.93;44.84;97563.91;6238440;28;20284;-44
2023/06/16 12:35:28;;;;;;;5.07;3.67;;;;;;;20.51;47.42;97566.09;6236093;28;20600;-45
2023/06/16 12:38:31;;;;;;;5.43;3.70;;;;;;;20.27;46.26;97523.09;6240930;28;20605;-44
2023/06/16 12:41:34;;;;;;;3.40;3.07;;;;;;;20.56;49.16;97549.72;6241572;28;20326;-44
2023/06/16 12:44:50;;;;;;;5.87;3.77;;;;;;;20.87;44.52;97549.72;6239280;28;20321;-45
2023/06/16 12:47:52;;;;;;;3.63;3.33;;;;;;;20.95;45.25;97526.50;6232885;28;20231;-44
2023/06/16 12:50:55;;;;;;;5.33;3.17;;;;;;;21.25;48.04;97545.72;6234021;28;20244;-45
2023/06/16 12:53:58;;;;;;;6.57;4.03;;;;;;;21.41;43.32;97546.91;6236884;28;20438;-44
2023/06/16 12:57:01;;;;;;;4.77;3.97;;;;;;;21.57;41.63;97552.66;6228125;28;20223;-45
2023/06/16 13:00:04;;;;;;;5.33;3.57;;;;;;;21.55;41.43;97554.91;6235879;28;20235;-44
2023/06/16 13:03:06;;;;;;;4.50;3.70;;;;;;;21.50;42.77;97539.59;6236048;28;20238;-44
2023/06/16 13:06:08;;;;;;;4.47;4.03;;;;;;;21.71;40.91;97560.66;6224395;28;20215;-43
2023/06/16 13:09:10;;;;;;;4.87;3.67;;;;;;;21.80;42.78;97562.28;6231883;28;20239;-45
2023/06/16 13:12:15;;;;;;;5.63;3.80;;;;;;;22.09;38.94;97552.72;6233097;28;20232;-44
2023/06/16 13:15:17;;;;;;;4.30;3.90;;;;;;;22.01;41.26;97559.72;6235522;28;20203;-43
2023/06/16 13:18:20;;;;;;;5.43;3.83;;;;;;;22.22;39.13;97559.16;6228374;28;20218;-44
2023/06/16 13:21:22;;;;;;;5.83;3.93;;;;;;;22.01;38.98;97559.72;6232215;28;20233;-43
2023/06/16 13:24:24;;;;;;;4.23;3.53;;;;;;;21.88;39.65;97549.84;6229663;28;20310;-44
2023/06/16 13:27:26;;;;;;;4.73;3.40;;;;;;;21.90;40.27;97544.91;6237374;28;20310;-44
2023/06/16 13:30:29;;;;;;;6.17;4.27;;;;;;;21.98;41.56;97554.16;6236466;28;20235;-45
2023/06/16 13:33:31;;;;;;;5.97;3.87;;;;;;;22.09;38.66;97545.38;6234012;28;20247;-44
2023/06/16 13:36:34;;;;;;;4.53;4.03;;;;;;;22.38;39.48;97550.19;6231348;28;20307;-44
2023/06/16 13:39:36;;;;;;;4.50;3.93;;;;;;;22.20;39.54;97531.50;6236800;28;20871;-45
2023/06/16 13:42:38;;;;;;;4.70;3.70;;;;;;;22.23;41.20;97547.16;6237163;28;20349;-44
2023/06/16 13:45:40;;;;;;;5.00;3.57;;;;;;;22.14;39.11;97545.25;6239948;28;20226;-44
2023/06/16 13:48:44;;;;;;;5.47;3.87;;;;;;;22.01;40.57;97548.09;6230918;28;20220;-44
2023/06/16 13:51:47;;;;;;;5.67;3.60;;;;;;;21.80;43.36;97543.28;6240316;28;20234;-44
2023/06/16 13:54:49;;;;;;;4.97;3.83;;;;;;;21.21;40.66;97504.91;6218519;28;20234;-46
2023/06/16 13:57:54;;;;;;;4.67;3.83;;;;;;;21.27;41.44;97528.03;6235278;28;20232;-42
2023/06/16 14:00:56;;;;;;;5.30;3.90;;;;;;;21.50;39.21;97519.81;6234168;28;20245;-44
2023/06/16 14:03:59;;;;;;;6.40;4.23;;;;;;;21.45;42.36;97526.19;6235482;28;20238;-44
2023/06/16 14:07:01;;;;;;;4.67;3.80;;;;;;;21.32;41.93;97533.31;6234944;28;20234;-43
2023/06/16 14:10:04;;;;;;;4.83;3.57;;;;;;;20.95;43.76;97528.41;6239664;28;20405;-44
2023/06/16 14:13:06;;;;;;;6.00;4.07;;;;;;;20.94;42.85;97534.94;6242503;28;20230;-44
2023/06/16 14:16:08;;;;;;;5.00;3.90;;;;;;;20.84;45.79;97520.56;6236587;28;20227;-44
2023/06/16 14:19:10;;;;;;;5.53;3.67;;;;;;;20.99;46.96;97535.59;6240270;28;20241;-44
2023/06/16 14:22:12;;;;;;;4.57;4.07;;;;;;;20.96;47.58;97541.63;6242295;28;20239;-43
2023/06/16 14:25:15;;;;;;;6.33;4.10;;;;;;;20.71;49.56;97537.69;6237851;28;20606;-44
2023/06/16 14:28:17;;;;;;;4.83;3.90;;;;;;;20.60;48.49;97550.69;6242332;28;20314;-44
2023/06/16 14:31:19;;;;;;;4.30;3.90;;;;;;;20.52;48.47;97537.13;6239931;28;20243;-44